Time;durP1;ratioP1;P1;durP2;ratioP2;P2;SDS_P1;SDS_P2;PMS_P1;PMS_P2;Temp;Humidity;BMP_temperature;BMP_pressure;BME280_temperature;BME280_humidity;BME280_pressure;Samples;Min_cycle;Max_cycle;Signal;HPM_P1;HPM_P2
2023/05/14 00:01:31;;;;;;;21.27;15.43;;;;;;;;;;5002999;28;99398;-79
2023/05/14 00:03:57;;;;;;;17.90;13.98;;;;;;;;;;5005758;28;100313;-78
2023/05/14 00:06:24;;;;;;;18.55;14.55;;;;;;;;;;5003600;28;99219;-79
2023/05/14 00:08:50;;;;;;;19.17;15.07;;;;;;;;;;5005149;28;100065;-79
2023/05/14 00:11:16;;;;;;;18.65;14.32;;;;;;;;;;5005666;28;100135;-78
2023/05/14 00:13:43;;;;;;;16.55;14.77;;;;;;;;;;5005878;28;100010;-78
2023/05/14 00:16:10;;;;;;;21.63;15.73;;;;;;;;;;5004142;28;99313;-79
2023/05/14 00:18:36;;;;;;;18.17;14.93;;;;;;;;;;5009296;28;99517;-78
2023/05/14 00:21:03;;;;;;;19.50;14.98;;;;;;;;;;5005045;28;99511;-79
2023/05/14 00:23:29;;;;;;;20.40;15.85;;;;;;;;;;5003000;28;100244;-78
2023/05/14 00:25:55;;;;;;;21.10;14.93;;;;;;;;;;5004009;28;99353;-79
2023/05/14 00:28:22;;;;;;;15.68;13.85;;;;;;;;;;5004491;28;99887;-79
2023/05/14 00:30:48;;;;;;;21.60;14.90;;;;;;;;;;5003911;28;99510;-78
2023/05/14 00:33:15;;;;;;;26.40;14.35;;;;;;;;;;4987585;28;100072;-79
2023/05/14 00:35:41;;;;;;;16.17;13.43;;;;;;;;;;4987898;28;99331;-79
2023/05/14 00:38:08;;;;;;;21.25;14.98;;;;;;;;;;5005568;28;99788;-79
2023/05/14 00:40:35;;;;;;;18.15;13.60;;;;;;;;;;4990241;28;99250;-79
2023/05/14 00:43:02;;;;;;;23.20;14.82;;;;;;;;;;4988441;28;101749;-79
2023/05/14 00:45:29;;;;;;;21.27;14.18;;;;;;;;;;5004962;28;98853;-79
2023/05/14 00:47:55;;;;;;;20.73;14.15;;;;;;;;;;5005651;28;99069;-78
2023/05/14 00:50:21;;;;;;;21.25;14.10;;;;;;;;;;5004579;28;100192;-79
2023/05/14 00:52:49;;;;;;;18.38;13.90;;;;;;;;;;4986591;28;101694;-79
2023/05/14 00:55:16;;;;;;;23.27;13.77;;;;;;;;;;4987065;28;100545;-79
2023/05/14 00:57:42;;;;;;;17.25;14.63;;;;;;;;;;5014495;28;99200;-78
2023/05/14 01:00:09;;;;;;;22.90;14.35;;;;;;;;;;4987006;28;101732;-78
2023/05/14 01:02:36;;;;;;;20.45;13.43;;;;;;;;;;5008141;28;99997;-79
2023/05/14 01:05:03;;;;;;;21.30;14.43;;;;;;;;;;5004580;28;99397;-78
2023/05/14 01:07:38;;;;;;;16.45;14.00;;;;;;;;;;4987383;28;100010;-77
2023/05/14 01:10:10;;;;;;;19.42;14.50;;;;;;;;;;5005478;28;99262;-79
2023/05/14 01:12:39;;;;;;;20.88;13.30;;;;;;;;;;5003481;28;100035;-79
2023/05/14 01:15:35;;;;;;;20.90;13.95;;;;;;;;;;5005225;28;99278;-78
2023/05/14 01:18:09;;;;;;;17.65;13.82;;;;;;;;;;5007679;28;100421;-79
2023/05/14 01:20:35;;;;;;;30.10;15.30;;;;;;;;;;5024160;28;100186;-78
2023/05/14 01:23:02;;;;;;;17.27;13.38;;;;;;;;;;5015527;28;98951;-78
2023/05/14 01:25:29;;;;;;;20.58;14.88;;;;;;;;;;5008954;28;99300;-78
2023/05/14 01:27:56;;;;;;;22.27;14.48;;;;;;;;;;4986658;28;99444;-78
2023/05/14 01:30:28;;;;;;;17.95;14.32;;;;;;;;;;4987331;28;101000;-79
2023/05/14 01:32:55;;;;;;;;;;;;;;;;;;5005444;28;99651;-78
2023/05/14 01:35:24;;;;;;;18.83;15.40;;;;;;;;;;5003966;28;129401;-77
2023/05/14 01:37:51;;;;;;;16.40;13.98;;;;;;;;;;5005260;28;99210;-79
2023/05/14 01:40:18;;;;;;;20.15;15.20;;;;;;;;;;4985070;28;101732;-79
2023/05/14 01:42:45;;;;;;;22.40;15.15;;;;;;;;;;4987099;28;102119;-78
2023/05/14 01:45:11;;;;;;;19.00;14.70;;;;;;;;;;5005007;28;99260;-79
2023/05/14 01:47:38;;;;;;;22.63;14.55;;;;;;;;;;5006037;28;102108;-78
2023/05/14 01:50:05;;;;;;;22.63;15.75;;;;;;;;;;5005208;28;99751;-79
2023/05/14 01:52:32;;;;;;;19.60;15.98;;;;;;;;;;5004130;28;98608;-79
2023/05/14 01:54:59;;;;;;;18.80;15.20;;;;;;;;;;5002191;28;98520;-79
2023/05/14 01:57:25;;;;;;;16.50;14.80;;;;;;;;;;5004321;28;98313;-79
2023/05/14 01:59:52;;;;;;;24.98;15.73;;;;;;;;;;4986487;28;101605;-78
2023/05/14 02:02:18;;;;;;;18.10;15.25;;;;;;;;;;5003595;28;100079;-79
2023/05/14 02:04:45;;;;;;;18.25;15.02;;;;;;;;;;5003899;28;100364;-79
2023/05/14 02:07:11;;;;;;;21.52;14.48;;;;;;;;;;5003625;28;99021;-79
2023/05/14 02:09:39;;;;;;;21.83;14.85;;;;;;;;;;5007124;28;99238;-78
2023/05/14 02:12:06;;;;;;;20.60;15.20;;;;;;;;;;5004358;28;98669;-78
2023/05/14 02:14:32;;;;;;;22.55;15.40;;;;;;;;;;4985994;28;99202;-78
2023/05/14 02:16:59;;;;;;;19.73;15.85;;;;;;;;;;5002030;28;99300;-78
2023/05/14 02:19:25;;;;;;;19.88;15.80;;;;;;;;;;5003781;28;100263;-78
2023/05/14 02:21:51;;;;;;;25.40;16.15;;;;;;;;;;4986838;28;101526;-78
2023/05/14 02:24:18;;;;;;;19.60;14.70;;;;;;;;;;5006789;28;99259;-79
2023/05/14 02:26:44;;;;;;;21.95;16.13;;;;;;;;;;5008090;28;98717;-78
2023/05/14 02:29:11;;;;;;;22.65;16.02;;;;;;;;;;4991906;28;99843;-79
2023/05/14 02:31:37;;;;;;;22.00;16.20;;;;;;;;;;5007385;28;100208;-79
2023/05/14 02:34:05;;;;;;;28.77;16.27;;;;;;;;;;4989712;28;100348;-79
2023/05/14 02:36:32;;;;;;;21.58;14.35;;;;;;;;;;4987492;28;101722;-79
2023/05/14 02:38:59;;;;;;;29.58;17.42;;;;;;;;;;4989727;28;102042;-79
2023/05/14 02:41:25;;;;;;;18.70;15.75;;;;;;;;;;4989031;28;99725;-78
2023/05/14 02:43:52;;;;;;;18.35;15.50;;;;;;;;;;4988841;28;100662;-78
2023/05/14 02:46:19;;;;;;;26.58;15.82;;;;;;;;;;4989766;28;101181;-78
2023/05/14 02:48:46;;;;;;;26.88;16.60;;;;;;;;;;5007648;28;99413;-78
2023/05/14 02:51:12;;;;;;;19.48;15.52;;;;;;;;;;5010018;28;99161;-78
2023/05/14 02:53:39;;;;;;;20.23;16.08;;;;;;;;;;5006850;28;99936;-78
2023/05/14 02:56:05;;;;;;;20.73;16.17;;;;;;;;;;5013337;28;100117;-78
2023/05/14 02:58:32;;;;;;;26.27;17.08;;;;;;;;;;5026424;28;99133;-79
2023/05/14 03:00:58;;;;;;;16.17;14.57;;;;;;;;;;5008927;28;100682;-79
2023/05/14 03:03:25;;;;;;;21.65;16.67;;;;;;;;;;4990444;28;101721;-78
2023/05/14 03:05:52;;;;;;;21.80;16.80;;;;;;;;;;5006165;28;100023;-78
2023/05/14 03:08:18;;;;;;;22.20;16.27;;;;;;;;;;4988797;28;101104;-77
2023/05/14 03:10:45;;;;;;;22.35;16.33;;;;;;;;;;5007669;28;98890;-77
2023/05/14 03:13:11;;;;;;;25.30;16.42;;;;;;;;;;5009802;28;98973;-77
2023/05/14 03:15:37;;;;;;;29.17;16.10;;;;;;;;;;4988426;28;102250;-79
2023/05/14 03:18:05;;;;;;;31.15;16.63;;;;;;;;;;5006757;28;99284;-78
2023/05/14 03:20:32;;;;;;;24.27;17.15;;;;;;;;;;5006268;28;99733;-77
2023/05/14 03:22:58;;;;;;;21.65;15.43;;;;;;;;;;5006375;28;99317;-79
2023/05/14 03:25:24;;;;;;;26.38;17.27;;;;;;;;;;5007041;28;99010;-79
2023/05/14 03:27:51;;;;;;;23.10;17.00;;;;;;;;;;5012076;28;99845;-79
2023/05/14 03:30:17;;;;;;;25.30;16.52;;;;;;;;;;5011425;28;100315;-79
2023/05/14 03:32:44;;;;;;;25.58;17.27;;;;;;;;;;5007040;28;98886;-79
2023/05/14 03:35:10;;;;;;;18.65;16.75;;;;;;;;;;5009427;28;98913;-78
2023/05/14 03:37:37;;;;;;;26.23;16.67;;;;;;;;;;4987667;28;101124;-79
2023/05/14 03:40:03;;;;;;;19.75;16.63;;;;;;;;;;4987308;28;101111;-79
2023/05/14 03:42:30;;;;;;;24.58;17.58;;;;;;;;;;5005653;28;101344;-79
2023/05/14 03:44:56;;;;;;;21.98;16.45;;;;;;;;;;4988126;28;100994;-79
2023/05/14 03:47:22;;;;;;;35.85;17.33;;;;;;;;;;4987164;28;100259;-78
2023/05/14 03:49:50;;;;;;;24.52;17.13;;;;;;;;;;4988015;28;101921;-78
2023/05/14 03:52:16;;;;;;;19.50;16.13;;;;;;;;;;4987429;28;100989;-78
2023/05/14 03:54:43;;;;;;;19.60;15.60;;;;;;;;;;4997938;28;101096;-79
2023/05/14 03:57:09;;;;;;;20.35;16.17;;;;;;;;;;5010929;28;101758;-78
2023/05/14 03:59:36;;;;;;;17.83;16.02;;;;;;;;;;5026470;28;99083;-79
2023/05/14 04:02:02;;;;;;;21.80;16.15;;;;;;;;;;5006725;28;100336;-80
2023/05/14 04:04:29;;;;;;;23.60;16.02;;;;;;;;;;5007316;28;99386;-78
2023/05/14 04:06:55;;;;;;;30.23;15.70;;;;;;;;;;5025568;28;99292;-78
2023/05/14 04:09:22;;;;;;;22.40;16.27;;;;;;;;;;5024917;28;99177;-79
2023/05/14 04:11:49;;;;;;;22.80;15.48;;;;;;;;;;5009650;28;99943;-79
2023/05/14 04:14:16;;;;;;;21.25;15.55;;;;;;;;;;5007210;28;101640;-78
2023/05/14 04:16:43;;;;;;;26.83;16.48;;;;;;;;;;5007052;28;100545;-77
2023/05/14 04:19:10;;;;;;;27.20;15.15;;;;;;;;;;5028674;28;99463;-78
2023/05/14 04:21:36;;;;;;;17.35;15.50;;;;;;;;;;5009624;28;100528;-79
2023/05/14 04:24:03;;;;;;;21.02;14.90;;;;;;;;;;5005742;28;100005;-78
2023/05/14 04:26:29;;;;;;;19.20;14.52;;;;;;;;;;5010416;28;98551;-78
2023/05/14 04:28:55;;;;;;;22.88;13.82;;;;;;;;;;5006310;28;100624;-78
2023/05/14 04:31:22;;;;;;;22.73;15.02;;;;;;;;;;5015693;28;99345;-78
2023/05/14 04:33:48;;;;;;;15.57;13.55;;;;;;;;;;5008331;28;100950;-79
2023/05/14 04:36:15;;;;;;;20.35;15.32;;;;;;;;;;5004584;28;100374;-79
2023/05/14 04:38:41;;;;;;;21.08;13.90;;;;;;;;;;5008752;28;99086;-78
2023/05/14 04:41:07;;;;;;;16.70;13.43;;;;;;;;;;5012700;28;100355;-78
2023/05/14 04:43:34;;;;;;;15.95;13.32;;;;;;;;;;5016612;28;99577;-79
2023/05/14 04:46:00;;;;;;;20.55;13.73;;;;;;;;;;5022626;27;99218;-77
2023/05/14 04:48:27;;;;;;;15.05;12.65;;;;;;;;;;5004493;28;99094;-78
2023/05/14 04:50:53;;;;;;;18.67;13.40;;;;;;;;;;5003822;28;99452;-79
2023/05/14 04:53:20;;;;;;;16.27;13.30;;;;;;;;;;5004148;28;100281;-78
2023/05/14 04:55:46;;;;;;;16.65;12.98;;;;;;;;;;5004028;28;100943;-79
2023/05/14 04:58:12;;;;;;;15.05;13.10;;;;;;;;;;4994417;28;99017;-78
2023/05/14 05:00:39;;;;;;;19.80;13.00;;;;;;;;;;5003376;28;100101;-78
2023/05/14 05:03:06;;;;;;;13.27;11.88;;;;;;;;;;5001024;28;100223;-79
2023/05/14 05:05:34;;;;;;;14.15;12.65;;;;;;;;;;4987521;28;100073;-78
2023/05/14 05:08:00;;;;;;;16.25;12.82;;;;;;;;;;4997351;28;100125;-78
2023/05/14 05:10:26;;;;;;;17.25;12.25;;;;;;;;;;5002996;28;99909;-78
2023/05/14 05:12:53;;;;;;;21.25;11.95;;;;;;;;;;4996299;28;100122;-78
2023/05/14 05:15:19;;;;;;;28.23;12.98;;;;;;;;;;4994426;28;99570;-79
2023/05/14 05:17:45;;;;;;;16.25;13.13;;;;;;;;;;4984896;28;100045;-79
2023/05/14 05:20:12;;;;;;;21.35;12.85;;;;;;;;;;4992079;28;101316;-78
2023/05/14 05:22:39;;;;;;;18.90;11.50;;;;;;;;;;5006995;28;100578;-79
2023/05/14 05:25:06;;;;;;;19.55;13.13;;;;;;;;;;4995099;28;100312;-79
2023/05/14 05:27:33;;;;;;;21.27;11.38;;;;;;;;;;5003206;28;99394;-78
2023/05/14 05:30:02;;;;;;;17.30;12.52;;;;;;;;;;4995919;28;100016;-78
2023/05/14 05:32:29;;;;;;;16.92;10.30;;;;;;;;;;5002537;28;100205;-78
2023/05/14 05:34:56;;;;;;;15.38;11.93;;;;;;;;;;4998942;28;99441;-79
2023/05/14 05:37:22;;;;;;;14.73;11.82;;;;;;;;;;4992632;28;100147;-78
2023/05/14 05:39:48;;;;;;;13.82;11.50;;;;;;;;;;4987359;28;99541;-78
2023/05/14 05:42:15;;;;;;;16.80;11.60;;;;;;;;;;4989156;28;100146;-79
2023/05/14 05:44:41;;;;;;;17.13;12.10;;;;;;;;;;4995065;28;100335;-79
2023/05/14 05:47:08;;;;;;;20.58;10.68;;;;;;;;;;4989248;28;100187;-79
2023/05/14 05:49:35;;;;;;;14.73;11.13;;;;;;;;;;4996605;28;100114;-78
2023/05/14 05:52:02;;;;;;;16.92;11.32;;;;;;;;;;5004291;28;100038;-78
2023/05/14 05:54:31;;;;;;;13.32;11.63;;;;;;;;;;4995262;28;100333;-77
2023/05/14 05:56:57;;;;;;;18.23;11.65;;;;;;;;;;4996239;28;100111;-79
2023/05/14 05:59:24;;;;;;;22.23;11.70;;;;;;;;;;4998389;28;99218;-78
2023/05/14 06:01:50;;;;;;;13.18;11.07;;;;;;;;;;4996713;28;98585;-78
2023/05/14 06:04:17;;;;;;;16.55;11.52;;;;;;;;;;5000893;28;99068;-78
2023/05/14 06:06:43;;;;;;;17.08;11.07;;;;;;;;;;5002622;28;100252;-78
2023/05/14 06:09:09;;;;;;;16.02;9.60;;;;;;;;;;5006597;28;100305;-78
2023/05/14 06:11:36;;;;;;;11.93;10.77;;;;;;;;;;5007011;28;99796;-79
2023/05/14 06:14:02;;;;;;;14.60;10.35;;;;;;;;;;4995623;28;99256;-79
2023/05/14 06:16:29;;;;;;;17.35;10.20;;;;;;;;;;5001679;28;100080;-78
2023/05/14 06:18:55;;;;;;;11.20;9.73;;;;;;;;;;4998399;28;100212;-79
2023/05/14 06:21:21;;;;;;;13.45;9.80;;;;;;;;;;5005720;28;100511;-79
2023/05/14 06:23:48;;;;;;;10.98;9.80;;;;;;;;;;5006223;28;99941;-78
2023/05/14 06:26:14;;;;;;;16.73;10.65;;;;;;;;;;4998330;28;99176;-79
2023/05/14 06:28:41;;;;;;;18.25;10.20;;;;;;;;;;4993986;28;100128;-79
2023/05/14 06:31:07;;;;;;;13.10;8.75;;;;;;;;;;4998568;28;100106;-79
2023/05/14 06:33:33;;;;;;;12.20;9.32;;;;;;;;;;4992050;28;101225;-78
2023/05/14 06:36:02;;;;;;;13.38;9.43;;;;;;;;;;4995875;28;99983;-78
2023/05/14 06:38:29;;;;;;;14.73;9.00;;;;;;;;;;4997859;28;99332;-78
2023/05/14 06:40:55;;;;;;;14.60;10.23;;;;;;;;;;5005744;28;100133;-78
2023/05/14 06:43:22;;;;;;;11.98;8.82;;;;;;;;;;4998155;28;100098;-79
2023/05/14 06:45:48;;;;;;;12.98;7.78;;;;;;;;;;5006508;28;98686;-79
2023/05/14 06:48:17;;;;;;;18.02;8.63;;;;;;;;;;4998024;28;100383;-79
2023/05/14 06:50:44;;;;;;;9.48;8.50;;;;;;;;;;4986850;28;99890;-79
2023/05/14 06:53:11;;;;;;;11.00;8.75;;;;;;;;;;5002937;28;100473;-79
2023/05/14 06:55:37;;;;;;;10.65;7.65;;;;;;;;;;4986221;28;100250;-78
2023/05/14 06:58:07;;;;;;;10.18;8.13;;;;;;;;;;4992788;28;99737;-79
2023/05/14 07:00:33;;;;;;;11.23;7.68;;;;;;;;;;4996399;28;100484;-78
2023/05/14 07:02:59;;;;;;;13.82;7.50;;;;;;;;;;4987033;28;100189;-77
2023/05/14 07:05:26;;;;;;;12.18;7.15;;;;;;;;;;4994660;28;99821;-79
2023/05/14 07:07:52;;;;;;;10.95;7.07;;;;;;;;;;4994940;28;99407;-79
2023/05/14 07:10:19;;;;;;;18.75;8.27;;;;;;;;;;5005231;28;99925;-79
2023/05/14 07:12:46;;;;;;;11.05;6.93;;;;;;;;;;4991289;28;100194;-79
2023/05/14 07:15:12;;;;;;;12.57;7.03;;;;;;;;;;4998121;28;100221;-79
2023/05/14 07:17:38;;;;;;;12.77;7.30;;;;;;;;;;4989220;28;99388;-79
2023/05/14 07:20:05;;;;;;;12.93;6.80;;;;;;;;;;4998202;28;100037;-78
2023/05/14 07:22:32;;;;;;;10.48;7.57;;;;;;;;;;4996244;28;99991;-79
2023/05/14 07:24:58;;;;;;;18.98;7.00;;;;;;;;;;5004367;28;100518;-80
2023/05/14 07:27:24;;;;;;;19.50;7.53;;;;;;;;;;4996195;28;99376;-79
2023/05/14 07:29:51;;;;;;;12.18;6.95;;;;;;;;;;4999243;28;99992;-79
2023/05/14 07:32:17;;;;;;;12.45;7.40;;;;;;;;;;4994308;28;99054;-78
2023/05/14 07:34:43;;;;;;;12.05;6.30;;;;;;;;;;5004628;28;99215;-79
2023/05/14 07:37:10;;;;;;;15.45;7.82;;;;;;;;;;4999635;28;100121;-78
2023/05/14 07:39:36;;;;;;;9.15;6.72;;;;;;;;;;5001909;28;98501;-78
2023/05/14 07:42:03;;;;;;;10.77;7.07;;;;;;;;;;4998552;28;100028;-79
2023/05/14 07:44:29;;;;;;;20.17;6.75;;;;;;;;;;4989046;28;100356;-79
2023/05/14 07:46:56;;;;;;;15.73;7.30;;;;;;;;;;4992512;28;100253;-78
2023/05/14 07:49:22;;;;;;;12.63;7.10;;;;;;;;;;4993854;28;100130;-79
2023/05/14 07:51:48;;;;;;;8.95;6.47;;;;;;;;;;5004297;28;100142;-79
2023/05/14 07:54:15;;;;;;;11.20;6.78;;;;;;;;;;5008412;28;100134;-79
2023/05/14 07:56:41;;;;;;;14.77;6.57;;;;;;;;;;4998676;28;99923;-79
2023/05/14 07:59:08;;;;;;;11.55;6.43;;;;;;;;;;5005322;28;100199;-79
2023/05/14 08:01:34;;;;;;;10.07;7.07;;;;;;;;;;5003778;28;99081;-78
2023/05/14 08:04:03;;;;;;;14.73;8.02;;;;;;;;;;4998424;28;100053;-78
2023/05/14 08:06:30;;;;;;;15.07;7.40;;;;;;;;;;5004916;28;100676;-79
2023/05/14 08:08:56;;;;;;;16.15;8.07;;;;;;;;;;5004596;28;100454;-78
2023/05/14 08:11:23;;;;;;;11.88;7.18;;;;;;;;;;5003660;28;99593;-79
2023/05/14 08:13:49;;;;;;;15.63;7.85;;;;;;;;;;5004545;28;100236;-79
2023/05/14 08:16:16;;;;;;;13.38;7.15;;;;;;;;;;5008463;28;100916;-79
2023/05/14 08:18:45;;;;;;;12.65;7.25;;;;;;;;;;5004186;28;99163;-79
2023/05/14 08:21:12;;;;;;;14.07;7.32;;;;;;;;;;5003698;28;98865;-79
2023/05/14 08:23:38;;;;;;;12.85;6.63;;;;;;;;;;5004903;28;100186;-79
2023/05/14 08:26:05;;;;;;;15.52;7.22;;;;;;;;;;5004505;28;99934;-79
2023/05/14 08:28:31;;;;;;;13.88;6.80;;;;;;;;;;5003962;28;99289;-78
2023/05/14 08:30:57;;;;;;;12.10;5.85;;;;;;;;;;5003996;28;98638;-79
2023/05/14 08:33:24;;;;;;;6.95;5.82;;;;;;;;;;5003868;28;99865;-79
2023/05/14 08:35:51;;;;;;;10.00;6.43;;;;;;;;;;5006444;28;99328;-80
2023/05/14 08:38:18;;;;;;;8.32;5.45;;;;;;;;;;5004545;28;100242;-79
2023/05/14 08:40:55;;;;;;;9.38;6.10;;;;;;;;;;5004229;28;99392;-79
2023/05/14 08:43:24;;;;;;;14.13;5.93;;;;;;;;;;5003329;28;99241;-78
2023/05/14 08:45:59;;;;;;;12.32;5.68;;;;;;;;;;5004053;28;99709;-79
2023/05/14 08:48:27;;;;;;;16.58;5.63;;;;;;;;;;5004643;28;100083;-79
2023/05/14 08:50:54;;;;;;;10.20;5.45;;;;;;;;;;5004031;28;99205;-79
2023/05/14 08:53:20;;;;;;;12.00;5.80;;;;;;;;;;5004759;28;99640;-79
2023/05/14 08:55:49;;;;;;;8.82;5.07;;;;;;;;;;5004354;28;99982;-78
2023/05/14 08:58:16;;;;;;;8.80;5.13;;;;;;;;;;4989092;28;99876;-78
2023/05/14 09:00:42;;;;;;;7.20;4.75;;;;;;;;;;4997508;28;99965;-78
2023/05/14 09:03:09;;;;;;;11.35;5.15;;;;;;;;;;4994429;28;99640;-79
2023/05/14 09:05:35;;;;;;;8.75;4.93;;;;;;;;;;4988507;28;100214;-79
2023/05/14 09:08:02;;;;;;;8.27;5.05;;;;;;;;;;4989249;28;98939;-79
2023/05/14 09:10:28;;;;;;;15.77;5.47;;;;;;;;;;4999089;28;100237;-79
2023/05/14 09:12:55;;;;;;;11.55;5.82;;;;;;;;;;4998921;28;100287;-80
2023/05/14 09:15:22;;;;;;;13.88;5.68;;;;;;;;;;5003038;28;99573;-79
2023/05/14 09:17:48;;;;;;;9.10;5.20;;;;;;;;;;4999394;28;99887;-79
2023/05/14 09:20:15;;;;;;;14.80;5.85;;;;;;;;;;4995964;28;100345;-79
2023/05/14 09:22:41;;;;;;;12.55;5.15;;;;;;;;;;4992685;28;99985;-79
2023/05/14 09:25:10;;;;;;;10.45;5.78;;;;;;;;;;4999997;28;100036;-79
2023/05/14 09:27:37;;;;;;;8.75;4.78;;;;;;;;;;4994897;28;100302;-79
2023/05/14 09:30:04;;;;;;;12.48;5.65;;;;;;;;;;4989511;28;99174;-79
2023/05/14 09:32:34;;;;;;;11.85;5.70;;;;;;;;;;4992638;28;99548;-79
2023/05/14 09:35:08;;;;;;;12.00;5.60;;;;;;;;;;4998717;28;99528;-78
2023/05/14 09:37:35;;;;;;;13.85;5.68;;;;;;;;;;5000217;28;100004;-79
2023/05/14 09:40:08;;;;;;;13.07;5.90;;;;;;;;;;5001875;28;100301;-78
2023/05/14 09:42:35;;;;;;;13.07;5.82;;;;;;;;;;5011802;28;100279;-79
2023/05/14 09:45:03;;;;;;;14.90;5.68;;;;;;;;;;5003978;28;100162;-79
2023/05/14 09:47:31;;;;;;;15.63;6.18;;;;;;;;;;5001140;28;100340;-79
2023/05/14 09:49:58;;;;;;;14.35;5.38;;;;;;;;;;5002178;28;101050;-78
2023/05/14 09:52:25;;;;;;;14.15;5.10;;;;;;;;;;5000742;28;100273;-78
2023/05/14 09:54:51;;;;;;;15.93;5.65;;;;;;;;;;5006690;28;98911;-79
2023/05/14 09:57:18;;;;;;;11.93;5.22;;;;;;;;;;5004766;28;100086;-80
2023/05/14 09:59:45;;;;;;;15.07;4.97;;;;;;;;;;5006758;28;100492;-80
2023/05/14 10:02:15;;;;;;;15.65;5.22;;;;;;;;;;4998737;28;100212;-79
2023/05/14 10:04:42;;;;;;;15.63;6.00;;;;;;;;;;4993691;28;99687;-79
2023/05/14 10:07:08;;;;;;;10.82;4.72;;;;;;;;;;4997664;28;98832;-79
2023/05/14 10:09:37;;;;;;;13.02;5.05;;;;;;;;;;4998660;28;100480;-79
2023/05/14 10:12:03;;;;;;;10.02;4.88;;;;;;;;;;4999364;28;100559;-79
2023/05/14 10:14:37;;;;;;;13.20;5.50;;;;;;;;;;4998299;28;100532;-79
2023/05/14 10:17:04;;;;;;;7.70;4.80;;;;;;;;;;5009647;28;100488;-79
2023/05/14 10:19:32;;;;;;;12.68;5.63;;;;;;;;;;5008970;28;99198;-80
2023/05/14 10:22:02;;;;;;;12.77;5.80;;;;;;;;;;5009332;28;99985;-79
2023/05/14 10:24:29;;;;;;;10.05;5.03;;;;;;;;;;5001590;28;99080;-79
2023/05/14 10:26:57;;;;;;;8.00;5.07;;;;;;;;;;5012963;28;99917;-79
2023/05/14 10:29:33;;;;;;;9.52;4.68;;;;;;;;;;5002731;28;100282;-79
2023/05/14 10:32:02;;;;;;;9.52;4.80;;;;;;;;;;5001274;28;99523;-79
2023/05/14 10:34:29;;;;;;;8.00;4.65;;;;;;;;;;4989582;28;99921;-79
2023/05/14 10:36:59;;;;;;;11.55;5.13;;;;;;;;;;4998292;28;99216;-78
2023/05/14 10:39:39;;;;;;;11.65;4.93;;;;;;;;;;5000590;28;100012;-78
2023/05/14 10:42:05;;;;;;;11.82;5.30;;;;;;;;;;5000304;28;99051;-79
2023/05/14 10:44:33;;;;;;;10.85;5.40;;;;;;;;;;4999137;28;99292;-79
2023/05/14 10:47:01;;;;;;;14.88;5.28;;;;;;;;;;5001985;28;100342;-78
2023/05/14 10:49:27;;;;;;;13.10;5.07;;;;;;;;;;4997847;28;99116;-79
2023/05/14 10:52:09;;;;;;;17.92;5.25;;;;;;;;;;5005953;28;100148;-79
2023/05/14 10:54:36;;;;;;;10.43;4.75;;;;;;;;;;4992611;28;99146;-79
2023/05/14 10:57:02;;;;;;;9.02;4.68;;;;;;;;;;5008375;28;99211;-80
2023/05/14 10:59:32;;;;;;;10.15;4.82;;;;;;;;;;5007020;28;99795;-79
2023/05/14 11:01:58;;;;;;;13.68;4.60;;;;;;;;;;5007035;28;99957;-78
2023/05/14 11:04:26;;;;;;;7.38;4.43;;;;;;;;;;5005201;28;99884;-78
2023/05/14 11:06:54;;;;;;;14.70;4.97;;;;;;;;;;5006626;28;100371;-78
2023/05/14 11:09:21;;;;;;;7.50;4.85;;;;;;;;;;5019379;28;100128;-78
2023/05/14 11:11:48;;;;;;;15.02;5.00;;;;;;;;;;5010773;28;99691;-78
2023/05/14 11:14:14;;;;;;;14.63;5.60;;;;;;;;;;5006647;28;100269;-79
2023/05/14 11:16:41;;;;;;;12.82;5.82;;;;;;;;;;5020501;28;99372;-78
2023/05/14 11:19:09;;;;;;;12.43;5.93;;;;;;;;;;5006608;28;100937;-79
2023/05/14 11:21:36;;;;;;;10.48;5.03;;;;;;;;;;5015333;28;101558;-78
2023/05/14 11:24:04;;;;;;;12.05;5.25;;;;;;;;;;5005287;28;98602;-78
2023/05/14 11:26:30;;;;;;;6.97;4.18;;;;;;;;;;5005648;28;99442;-78
2023/05/14 11:28:57;;;;;;;14.73;5.10;;;;;;;;;;5010855;28;99303;-79
2023/05/14 11:31:24;;;;;;;8.48;4.97;;;;;;;;;;5019516;28;100779;-79
2023/05/14 11:33:50;;;;;;;15.50;5.75;;;;;;;;;;5006136;28;100193;-78
2023/05/14 11:36:17;;;;;;;11.52;4.55;;;;;;;;;;5005954;28;100109;-79
2023/05/14 11:38:47;;;;;;;11.90;5.90;;;;;;;;;;5024364;28;99510;-78
2023/05/14 11:41:14;;;;;;;10.95;5.05;;;;;;;;;;5026002;28;100041;-78
2023/05/14 11:43:41;;;;;;;14.23;5.45;;;;;;;;;;5025266;28;99172;-78
2023/05/14 11:46:14;;;;;;;11.25;5.35;;;;;;;;;;5019530;28;99623;-78
2023/05/14 11:48:41;;;;;;;11.55;5.30;;;;;;;;;;5013421;28;99133;-78
2023/05/14 11:51:07;;;;;;;12.70;5.22;;;;;;;;;;5006024;28;100109;-79
2023/05/14 11:53:33;;;;;;;12.35;5.45;;;;;;;;;;5007735;28;100974;-79
2023/05/14 11:56:01;;;;;;;8.88;5.28;;;;;;;;;;5005055;28;100958;-79
2023/05/14 11:58:31;;;;;;;7.55;5.03;;;;;;;;;;4989784;28;100373;-78
2023/05/14 12:00:57;;;;;;;8.02;4.65;;;;;;;;;;5004593;28;100047;-78
2023/05/14 12:03:28;;;;;;;14.43;4.85;;;;;;;;;;5005336;28;100373;-79
2023/05/14 12:05:57;;;;;;;12.60;4.85;;;;;;;;;;4992283;28;99565;-78
2023/05/14 12:08:27;;;;;;;7.85;4.55;;;;;;;;;;4991427;28;99211;-79
2023/05/14 12:10:53;;;;;;;14.45;5.00;;;;;;;;;;4997433;28;99676;-79
2023/05/14 12:13:20;;;;;;;12.07;4.97;;;;;;;;;;4998458;28;100704;-78
2023/05/14 12:15:52;;;;;;;8.68;4.63;;;;;;;;;;4997782;28;100457;-79
2023/05/14 12:18:18;;;;;;;10.65;5.43;;;;;;;;;;4998610;28;100510;-79
2023/05/14 12:20:50;;;;;;;12.52;5.45;;;;;;;;;;4993957;28;99273;-79
2023/05/14 12:23:43;;;;;;;14.88;6.40;;;;;;;;;;4991038;28;98992;-78
2023/05/14 12:26:11;;;;;;;10.35;5.20;;;;;;;;;;4990052;28;100765;-79
2023/05/14 12:28:41;;;;;;;7.43;5.22;;;;;;;;;;4993586;28;100302;-77
2023/05/14 12:31:08;;;;;;;10.18;5.00;;;;;;;;;;5001720;28;99744;-79
2023/05/14 12:33:34;;;;;;;9.90;5.45;;;;;;;;;;4992248;28;99288;-78
2023/05/14 12:36:01;;;;;;;10.05;5.05;;;;;;;;;;5002806;28;100262;-80
2023/05/14 12:38:47;;;;;;;14.20;5.30;;;;;;;;;;4998377;28;98619;-78
2023/05/14 12:41:13;;;;;;;13.77;6.57;;;;;;;;;;4995784;28;100417;-78
2023/05/14 12:43:41;;;;;;;7.30;4.47;;;;;;;;;;5003805;28;100009;-78
2023/05/14 12:46:08;;;;;;;10.57;5.18;;;;;;;;;;4993353;28;99516;-78
2023/05/14 12:48:34;;;;;;;11.48;5.18;;;;;;;;;;4993313;28;100225;-79
2023/05/14 12:51:01;;;;;;;17.35;5.78;;;;;;;;;;4985846;28;100013;-79
2023/05/14 12:53:27;;;;;;;7.95;5.25;;;;;;;;;;4995897;28;99576;-79
2023/05/14 12:55:53;;;;;;;9.30;5.07;;;;;;;;;;4995284;28;99962;-78
2023/05/14 12:58:20;;;;;;;16.73;4.63;;;;;;;;;;4997496;28;99396;-78
2023/05/14 13:00:46;;;;;;;9.90;5.80;;;;;;;;;;4991968;28;100003;-78
2023/05/14 13:03:12;;;;;;;13.90;5.10;;;;;;;;;;5002146;28;99118;-78
2023/05/14 13:05:39;;;;;;;11.90;5.20;;;;;;;;;;4996523;28;99380;-77
2023/05/14 13:08:05;;;;;;;11.80;5.05;;;;;;;;;;4994349;28;99574;-79
2023/05/14 13:10:32;;;;;;;13.25;4.82;;;;;;;;;;4999519;28;100972;-78
2023/05/14 13:12:58;;;;;;;11.70;5.22;;;;;;;;;;4992381;28;100456;-77
2023/05/14 13:15:24;;;;;;;9.10;4.28;;;;;;;;;;4994088;28;98893;-79
2023/05/14 13:17:51;;;;;;;11.57;4.85;;;;;;;;;;4996939;28;99179;-79
2023/05/14 13:20:22;;;;;;;14.48;4.97;;;;;;;;;;4994780;28;99464;-79
2023/05/14 13:22:48;;;;;;;7.78;5.10;;;;;;;;;;4966384;28;99246;-78
2023/05/14 13:25:15;;;;;;;7.90;4.85;;;;;;;;;;5000877;28;99574;-79
2023/05/14 13:27:41;;;;;;;11.82;5.05;;;;;;;;;;4984530;28;99270;-79
2023/05/14 13:30:08;;;;;;;11.38;4.97;;;;;;;;;;4991037;28;98543;-77
2023/05/14 13:32:34;;;;;;;7.55;4.93;;;;;;;;;;4991740;28;100999;-79
2023/05/14 13:35:00;;;;;;;12.55;5.03;;;;;;;;;;4990676;28;98722;-80
2023/05/14 13:37:27;;;;;;;10.02;4.78;;;;;;;;;;5001669;28;99207;-78
2023/05/14 13:39:53;;;;;;;14.60;5.88;;;;;;;;;;4999267;28;100537;-78
2023/05/14 13:42:20;;;;;;;13.77;4.82;;;;;;;;;;5003113;28;100144;-79
2023/05/14 13:44:46;;;;;;;15.93;5.57;;;;;;;;;;4995542;28;100773;-78
2023/05/14 13:47:12;;;;;;;9.82;4.75;;;;;;;;;;5003793;28;99283;-79
2023/05/14 13:49:39;;;;;;;11.93;4.53;;;;;;;;;;5001052;28;99040;-78
2023/05/14 13:52:05;;;;;;;11.05;5.25;;;;;;;;;;4982831;28;99813;-79
2023/05/14 13:54:32;;;;;;;13.30;5.05;;;;;;;;;;4982992;28;99571;-77
2023/05/14 13:56:58;;;;;;;12.35;4.80;;;;;;;;;;4995741;28;100073;-77
2023/05/14 13:59:25;;;;;;;10.57;5.28;;;;;;;;;;5002973;28;100321;-79
2023/05/14 14:01:51;;;;;;;14.75;5.55;;;;;;;;;;4994743;28;99466;-78
2023/05/14 14:04:18;;;;;;;11.52;5.57;;;;;;;;;;4998028;28;99780;-78
2023/05/14 14:06:45;;;;;;;13.23;4.80;;;;;;;;;;4993826;28;98824;-79
2023/05/14 14:09:12;;;;;;;13.55;5.53;;;;;;;;;;4990023;28;100418;-79
2023/05/14 14:11:39;;;;;;;16.17;5.60;;;;;;;;;;4999889;28;100624;-79
2023/05/14 14:14:06;;;;;;;10.15;5.20;;;;;;;;;;4988383;28;100353;-78
2023/05/14 14:16:32;;;;;;;15.57;5.30;;;;;;;;;;5002693;28;99217;-77
2023/05/14 14:18:58;;;;;;;13.88;4.97;;;;;;;;;;4993213;28;100367;-78